Archival Weather

Nawabshah

Nawabshah, Pakistan (OPNH)

Report from: Tuesday, September 19, 2023 5:00 PM PKT
Current time: Wednesday, May 29, 2024 1:43 PM PKT

Current weather – Weather history – Daily summaries
Weather forecast

Temperature38.0°C (100.4°F)
Heat index44.6°C (112.2°F)
Dew point23.0°C (73.4°F)
Winds 12 kts (6.2 m/s, 13.8 mph) Northwest (315°)
Visibility3.7 mi. (6 km)
Clouds Few clouds 3,500 ft. (1,067 m)
Few clouds 10,000 ft. (3,048 m)
Altimeter29.53 in.Hg (1000 mB)
Relative humidity42 %
Density altitude3,415 ft. (1,041 m)
Flight conditions Marginal Visual Meteorological Conditions
Raw dataOPNH 191200Z 31512KT 6000 FEW035 FEW100 38/23 Q1000
An error has occurred. This application may no longer respond until reloaded. Reload 🗙